Time;durP1;ratioP1;P1;durP2;ratioP2;P2;SDS_P1;SDS_P2;PMS_P1;PMS_P2;Temp;Humidity;BMP_temperature;BMP_pressure;BME280_temperature;BME280_humidity;BME280_pressure;Samples;Min_cycle;Max_cycle;Signal;HPM_P1;HPM_P2
2022/03/06 00:01:30;;;;;;;25.47;16.57;;;-0.20;99.90;;;;;;5012852;28;20211;-52
2022/03/06 00:03:58;;;;;;;19.33;13.60;;;-0.30;99.90;;;;;;5012201;28;20239;-52
2022/03/06 00:06:26;;;;;;;21.80;14.40;;;-0.30;99.90;;;;;;5012348;28;20692;-51
2022/03/06 00:08:54;;;;;;;21.93;14.40;;;-0.30;99.90;;;;;;5012627;28;20264;-51
2022/03/06 00:11:24;;;;;;;21.03;13.63;;;-0.30;99.90;;;;;;5012473;28;20219;-52
2022/03/06 00:13:52;;;;;;;19.77;13.13;;;-0.30;99.90;;;;;;5011471;28;20262;-52
2022/03/06 00:16:20;;;;;;;19.47;13.47;;;-0.30;99.90;;;;;;5012777;28;20203;-51
2022/03/06 00:18:48;;;;;;;22.67;16.23;;;-0.30;99.90;;;;;;5012152;28;20707;-52
2022/03/06 00:21:16;;;;;;;22.43;15.83;;;-0.40;99.90;;;;;;5010889;28;20205;-51
2022/03/06 00:23:45;;;;;;;20.07;13.97;;;-0.40;99.90;;;;;;5011975;28;20239;-51
2022/03/06 00:26:13;;;;;;;20.97;13.57;;;-0.40;99.90;;;;;;5011865;28;20657;-52
2022/03/06 00:28:42;;;;;;;21.00;13.37;;;-0.40;99.90;;;;;;5012576;28;20255;-51
2022/03/06 00:31:10;;;;;;;24.17;17.10;;;-0.40;99.90;;;;;;5012150;28;20261;-51
2022/03/06 00:33:39;;;;;;;20.83;13.10;;;-0.40;99.90;;;;;;5010978;28;20227;-51
2022/03/06 00:36:07;;;;;;;21.33;12.97;;;-0.40;99.90;;;;;;5012240;28;20201;-51
2022/03/06 00:38:35;;;;;;;21.10;14.30;;;-0.50;99.90;;;;;;5011997;28;20660;-52
2022/03/06 00:41:03;;;;;;;37.03;26.40;;;-0.50;99.90;;;;;;5011936;28;20199;-52
2022/03/06 00:43:31;;;;;;;21.73;14.97;;;-0.50;99.90;;;;;;5011394;28;20258;-51
2022/03/06 00:46:01;;;;;;;17.83;14.07;;;-0.60;99.90;;;;;;5012361;28;20262;-52
2022/03/06 00:48:29;;;;;;;19.53;14.47;;;-0.60;99.90;;;;;;5011498;28;20233;-51
2022/03/06 00:50:57;;;;;;;19.87;13.20;;;-0.60;99.90;;;;;;5012029;28;20310;-51
2022/03/06 00:53:25;;;;;;;18.63;12.57;;;-0.70;99.90;;;;;;5011399;28;20644;-51
2022/03/06 00:55:53;;;;;;;24.53;14.97;;;-0.70;99.90;;;;;;5011259;28;20195;-51
2022/03/06 00:58:21;;;;;;;21.37;13.17;;;-0.70;99.90;;;;;;5012113;28;20209;-51
2022/03/06 01:00:50;;;;;;;19.23;13.70;;;-0.70;99.90;;;;;;5011510;28;20557;-51
2022/03/06 01:03:21;;;;;;;20.77;14.23;;;-0.70;99.90;;;;;;5010884;28;20208;-51
2022/03/06 01:05:49;;;;;;;15.83;12.03;;;-0.70;99.90;;;;;;5011698;28;20596;-51
2022/03/06 01:08:17;;;;;;;19.93;13.90;;;-0.70;99.90;;;;;;5011505;28;20207;-51
2022/03/06 01:10:47;;;;;;;20.27;13.40;;;-0.70;99.90;;;;;;5012098;28;20273;-52
2022/03/06 01:13:17;;;;;;;18.53;13.23;;;-0.70;99.90;;;;;;5010494;28;20214;-52
2022/03/06 01:15:45;;;;;;;17.80;13.20;;;-0.80;99.90;;;;;;5011931;28;20207;-52
2022/03/06 01:18:13;;;;;;;17.83;12.60;;;-0.80;99.90;;;;;;5011184;28;20581;-52
2022/03/06 01:20:43;;;;;;;23.33;14.70;;;-0.80;99.90;;;;;;5011333;28;20199;-52
2022/03/06 01:23:11;;;;;;;19.73;13.23;;;-0.80;99.90;;;;;;5009622;28;20207;-52
2022/03/06 01:25:39;;;;;;;21.13;13.93;;;-0.90;99.90;;;;;;5010972;28;20631;-51
2022/03/06 01:28:08;;;;;;;19.83;13.77;;;-0.80;99.90;;;;;;5011403;28;20207;-52
2022/03/06 01:30:36;;;;;;;19.20;13.83;;;-0.90;99.90;;;;;;5011515;28;20277;-52
2022/03/06 01:33:04;;;;;;;21.23;13.60;;;-0.90;99.90;;;;;;5010217;28;20251;-51
2022/03/06 01:35:32;;;;;;;20.63;13.80;;;-1.00;99.90;;;;;;5011383;28;20218;-51
2022/03/06 01:38:02;;;;;;;18.80;13.70;;;-1.00;99.90;;;;;;5010944;28;20260;-52
2022/03/06 01:40:30;;;;;;;21.70;13.30;;;-1.00;99.90;;;;;;5011198;28;20263;-52
2022/03/06 01:42:58;;;;;;;20.57;13.27;;;-1.00;99.90;;;;;;5010333;28;20203;-51
2022/03/06 01:45:26;;;;;;;19.70;13.20;;;-1.10;99.90;;;;;;5011259;28;20289;-52
2022/03/06 01:47:56;;;;;;;20.87;13.57;;;-1.10;99.90;;;;;;5011061;28;20613;-52
2022/03/06 01:50:27;;;;;;;19.73;13.37;;;-1.10;99.90;;;;;;5010495;28;20254;-52
2022/03/06 01:52:57;;;;;;;20.60;12.70;;;-1.10;99.90;;;;;;5010540;28;20222;-51
2022/03/06 01:55:28;;;;;;;18.90;12.80;;;-1.10;99.90;;;;;;5011186;28;20254;-52
2022/03/06 01:57:58;;;;;;;18.60;12.93;;;-1.10;99.90;;;;;;5011055;28;20206;-52
2022/03/06 02:00:27;;;;;;;19.50;13.40;;;-1.10;99.90;;;;;;5010676;28;20565;-52
2022/03/06 02:02:56;;;;;;;20.00;13.53;;;-1.10;99.90;;;;;;5009288;28;20242;-52
2022/03/06 02:05:24;;;;;;;20.43;13.43;;;-1.10;99.90;;;;;;5010922;28;20265;-52
2022/03/06 02:07:52;;;;;;;20.60;13.47;;;-1.10;99.90;;;;;;5010657;28;20635;-51
2022/03/06 02:10:20;;;;;;;16.10;12.77;;;-1.10;99.90;;;;;;5010954;28;20207;-52
2022/03/06 02:12:50;;;;;;;18.43;13.73;;;-1.10;99.90;;;;;;5009889;28;20203;-52
2022/03/06 02:15:19;;;;;;;19.27;13.27;;;-1.20;99.90;;;;;;5010970;28;20227;-52
2022/03/06 02:17:47;;;;;;;19.63;13.20;;;-1.20;99.90;;;;;;5010559;28;20219;-51
2022/03/06 02:20:17;;;;;;;19.57;12.93;;;-1.20;99.90;;;;;;5010916;28;20215;-51
2022/03/06 02:22:49;;;;;;;23.27;14.43;;;-1.20;99.90;;;;;;5009606;28;20207;-52
2022/03/06 02:25:21;;;;;;;20.00;13.90;;;-1.20;99.90;;;;;;5010022;28;20269;-52
2022/03/06 02:27:52;;;;;;;19.40;13.13;;;-1.10;99.90;;;;;;5010748;28;20192;-52
2022/03/06 02:30:21;;;;;;;20.13;13.53;;;-1.20;99.90;;;;;;5012301;28;20211;-51
2022/03/06 02:32:51;;;;;;;19.50;13.43;;;-1.10;99.90;;;;;;5013944;28;20207;-51
2022/03/06 02:35:20;;;;;;;23.53;14.07;;;-1.10;99.90;;;;;;5011162;28;20634;-52
2022/03/06 02:37:50;;;;;;;20.13;12.87;;;-1.10;99.90;;;;;;4994817;28;20231;-51
2022/03/06 02:40:21;;;;;;;19.43;13.60;;;-1.10;99.90;;;;;;4994394;28;20353;-52
2022/03/06 02:42:50;;;;;;;20.57;13.10;;;-1.10;99.90;;;;;;5002593;28;20759;-52
2022/03/06 02:45:21;;;;;;;18.77;13.00;;;-1.10;99.90;;;;;;5013996;28;20273;-51
2022/03/06 02:47:51;;;;;;;22.73;14.30;;;-1.00;99.90;;;;;;5013544;28;20261;-51
2022/03/06 02:50:21;;;;;;;20.30;13.97;;;-1.00;99.90;;;;;;5014063;28;20240;-51
2022/03/06 02:52:52;;;;;;;21.13;14.13;;;-1.00;99.90;;;;;;5013419;28;20345;-52
2022/03/06 02:55:21;;;;;;;20.53;13.80;;;-1.00;99.90;;;;;;5013321;28;20238;-51
2022/03/06 02:57:49;;;;;;;19.80;13.37;;;-1.00;99.90;;;;;;5013577;28;20221;-51
2022/03/06 03:00:20;;;;;;;20.27;13.37;;;-0.90;99.90;;;;;;5013721;28;20210;-52
2022/03/06 03:02:50;;;;;;;19.67;13.93;;;-0.90;99.90;;;;;;5013253;28;20187;-57
2022/03/06 03:05:20;;;;;;;20.47;14.57;;;-0.90;99.90;;;;;;5013655;28;20227;-51
2022/03/06 03:07:50;;;;;;;19.20;14.03;;;-0.90;99.90;;;;;;5013757;28;20203;-51
2022/03/06 03:10:22;;;;;;;21.40;14.33;;;-0.90;99.90;;;;;;5014283;28;20203;-51
2022/03/06 03:12:50;;;;;;;20.10;14.30;;;-1.00;99.90;;;;;;5013225;28;20222;-52
2022/03/06 03:15:19;;;;;;;19.87;14.07;;;-1.00;99.90;;;;;;5014239;28;20226;-51
2022/03/06 03:17:47;;;;;;;21.93;15.13;;;-0.90;99.90;;;;;;5013803;28;20664;-52
2022/03/06 03:20:16;;;;;;;21.07;13.53;;;-1.00;99.90;;;;;;5013896;28;20253;-52
2022/03/06 03:22:45;;;;;;;18.57;13.43;;;-1.00;99.90;;;;;;5012492;28;20222;-51
2022/03/06 03:25:14;;;;;;;20.37;14.60;;;-1.00;99.90;;;;;;5010497;28;20235;-50
2022/03/06 03:27:43;;;;;;;22.80;15.07;;;-1.00;99.90;;;;;;4993830;28;20226;-51
2022/03/06 03:30:12;;;;;;;21.67;14.37;;;-1.00;99.90;;;;;;4994079;28;20208;-51
2022/03/06 03:32:40;;;;;;;21.00;14.13;;;-1.00;99.90;;;;;;4992816;28;20219;-51
2022/03/06 03:35:09;;;;;;;20.27;13.57;;;-1.00;99.90;;;;;;4994175;28;20645;-51
2022/03/06 03:37:38;;;;;;;22.47;14.80;;;-1.10;99.90;;;;;;4993489;28;20583;-51
2022/03/06 03:40:07;;;;;;;22.63;14.13;;;-1.10;99.90;;;;;;4993437;28;20212;-51
2022/03/06 03:42:37;;;;;;;21.20;13.57;;;-1.10;99.90;;;;;;4998779;28;20203;-51
2022/03/06 03:45:07;;;;;;;19.13;13.87;;;-1.10;99.90;;;;;;5013162;28;20226;-51
2022/03/06 03:47:35;;;;;;;19.63;14.07;;;-1.20;99.90;;;;;;5012798;28;20629;-50
2022/03/06 03:50:05;;;;;;;19.57;14.03;;;-1.10;99.90;;;;;;5013495;28;20203;-51
2022/03/06 03:52:33;;;;;;;20.37;14.97;;;-1.10;99.90;;;;;;5012232;28;20222;-51
2022/03/06 03:55:01;;;;;;;19.93;13.83;;;-1.20;99.90;;;;;;5012606;28;20230;-51
2022/03/06 03:57:29;;;;;;;20.80;14.87;;;-1.20;99.90;;;;;;5012866;28;20203;-52
2022/03/06 03:59:58;;;;;;;21.10;14.00;;;-1.30;99.90;;;;;;5012906;28;20246;-51
2022/03/06 04:02:26;;;;;;;21.37;14.83;;;-1.40;99.90;;;;;;5012190;28;20668;-51
2022/03/06 04:04:55;;;;;;;20.87;13.40;;;-1.40;99.90;;;;;;5012840;28;20579;-51
2022/03/06 04:07:23;;;;;;;18.40;13.60;;;-1.40;99.90;;;;;;5012285;28;20257;-51
2022/03/06 04:09:51;;;;;;;20.33;14.87;;;-1.40;99.90;;;;;;5012663;28;20235;-52
2022/03/06 04:12:19;;;;;;;20.47;13.50;;;-1.50;99.90;;;;;;5011388;28;20897;-52
2022/03/06 04:14:47;;;;;;;20.03;14.43;;;-1.50;99.90;;;;;;5012581;28;20300;-51
2022/03/06 04:17:16;;;;;;;22.87;14.60;;;-1.50;99.90;;;;;;5012616;28;20559;-52
2022/03/06 04:19:44;;;;;;;22.07;14.90;;;-1.60;99.90;;;;;;5011763;28;20215;-52
2022/03/06 04:22:12;;;;;;;17.73;12.90;;;-1.70;99.90;;;;;;5010927;28;20203;-51
2022/03/06 04:24:41;;;;;;;19.40;13.77;;;-1.70;99.90;;;;;;5012276;28;20292;-51
2022/03/06 04:27:09;;;;;;;25.73;15.40;;;-1.60;99.90;;;;;;5012024;28;20306;-52
2022/03/06 04:29:37;;;;;;;27.23;15.27;;;-1.70;99.90;;;;;;5011916;28;20207;-51
2022/03/06 04:32:06;;;;;;;21.83;14.60;;;-1.70;99.90;;;;;;5011807;28;20258;-52
2022/03/06 04:34:36;;;;;;;22.23;15.40;;;-1.70;99.90;;;;;;5011875;28;20723;-51
2022/03/06 04:37:04;;;;;;;21.80;14.97;;;-1.80;99.90;;;;;;5011982;28;20648;-52
2022/03/06 04:39:32;;;;;;;23.00;15.23;;;-1.80;99.90;;;;;;5012129;28;20261;-51
2022/03/06 04:42:00;;;;;;;20.53;14.10;;;-1.80;99.90;;;;;;5009111;28;20234;-51
2022/03/06 04:44:29;;;;;;;21.23;14.03;;;-1.80;99.90;;;;;;4992533;28;20231;-52
2022/03/06 04:46:57;;;;;;;19.07;13.37;;;-1.70;99.90;;;;;;4992793;28;20211;-51
2022/03/06 04:49:25;;;;;;;21.97;14.23;;;-1.70;99.90;;;;;;4998345;28;20214;-52
2022/03/06 04:51:54;;;;;;;19.27;13.83;;;-1.60;99.90;;;;;;5011608;28;20206;-52
2022/03/06 04:54:23;;;;;;;22.17;13.57;;;-1.60;99.90;;;;;;5010588;28;20300;-52
2022/03/06 04:56:51;;;;;;;19.80;13.83;;;-1.60;99.90;;;;;;5011888;28;20260;-52
2022/03/06 04:59:19;;;;;;;20.07;14.00;;;-1.60;99.90;;;;;;5011805;28;20249;-51
2022/03/06 05:01:47;;;;;;;21.57;14.77;;;-1.50;99.90;;;;;;5011065;28;20695;-52
2022/03/06 05:04:15;;;;;;;21.40;13.57;;;-1.50;99.90;;;;;;5011609;28;20240;-52
2022/03/06 05:06:43;;;;;;;19.50;13.60;;;-1.50;99.90;;;;;;5011474;28;20210;-52
2022/03/06 05:09:13;;;;;;;21.43;13.10;;;-1.60;99.90;;;;;;5011669;28;20207;-52
2022/03/06 05:11:42;;;;;;;16.63;12.13;;;-1.60;99.90;;;;;;5011163;28;20210;-52
2022/03/06 05:14:10;;;;;;;20.60;13.27;;;-1.60;99.90;;;;;;4992130;28;20293;-52
2022/03/06 05:16:39;;;;;;;19.03;13.50;;;-1.60;99.90;;;;;;4992138;28;20243;-52
2022/03/06 05:19:07;;;;;;;22.00;14.00;;;-1.60;99.90;;;;;;4991512;28;20669;-52
2022/03/06 05:21:35;;;;;;;19.33;13.60;;;-1.60;99.90;;;;;;4990525;28;20266;-51
2022/03/06 05:24:03;;;;;;;18.17;13.43;;;-1.60;99.90;;;;;;4991569;28;20262;-51
2022/03/06 05:26:33;;;;;;;20.83;13.70;;;-1.60;99.90;;;;;;4992182;28;20265;-50
2022/03/06 05:29:01;;;;;;;21.80;13.83;;;-1.70;99.90;;;;;;4992073;28;20215;-51
2022/03/06 05:31:29;;;;;;;21.00;14.33;;;-1.70;99.90;;;;;;4991813;28;20363;-51
2022/03/06 05:33:57;;;;;;;19.90;13.63;;;-1.70;99.90;;;;;;4991259;28;20235;-50
2022/03/06 05:36:25;;;;;;;20.50;13.40;;;-1.80;99.90;;;;;;4991925;28;20210;-51
2022/03/06 05:38:54;;;;;;;19.93;13.93;;;-1.80;99.90;;;;;;4992244;28;20266;-51
2022/03/06 05:41:22;;;;;;;20.83;14.17;;;-1.80;99.90;;;;;;4991772;28;20614;-50
2022/03/06 05:43:51;;;;;;;19.73;13.67;;;-1.80;99.90;;;;;;5007975;28;20719;-51
2022/03/06 05:46:19;;;;;;;19.03;14.13;;;-1.70;99.90;;;;;;5011062;28;20210;-50
2022/03/06 05:48:48;;;;;;;18.40;12.63;;;-1.70;99.90;;;;;;5010812;28;20707;-51
2022/03/06 05:51:16;;;;;;;20.17;12.93;;;-1.60;99.90;;;;;;5011762;28;20257;-50
2022/03/06 05:53:44;;;;;;;22.50;13.53;;;-1.60;99.90;;;;;;5010765;28;20262;-50
2022/03/06 05:56:13;;;;;;;24.60;14.23;;;-1.60;99.90;;;;;;5011575;28;20205;-51
2022/03/06 05:58:41;;;;;;;21.07;13.23;;;-1.50;99.90;;;;;;5011159;28;20256;-51
2022/03/06 06:01:10;;;;;;;20.67;13.70;;;-1.50;99.90;;;;;;5011186;28;20265;-51
2022/03/06 06:03:39;;;;;;;19.77;13.50;;;-1.40;99.90;;;;;;5010764;28;20234;-51
2022/03/06 06:06:07;;;;;;;19.57;13.30;;;-1.40;99.90;;;;;;5014579;28;20729;-51
2022/03/06 06:08:35;;;;;;;16.97;12.03;;;-1.30;99.90;;;;;;5015162;28;20256;-51
2022/03/06 06:11:03;;;;;;;18.67;13.43;;;-1.30;99.90;;;;;;5014538;28;20214;-51
2022/03/06 06:13:31;;;;;;;19.73;13.70;;;-1.20;99.90;;;;;;5010225;28;20282;-51
2022/03/06 06:15:59;;;;;;;20.63;13.97;;;-1.20;99.90;;;;;;5001258;28;20210;-51
2022/03/06 06:18:31;;;;;;;17.83;12.30;;;-1.10;99.90;;;;;;5014130;28;20293;-51
2022/03/06 06:20:59;;;;;;;17.67;13.43;;;-1.10;99.90;;;;;;5014962;28;20213;-51
2022/03/06 06:23:27;;;;;;;17.43;13.00;;;-1.00;99.90;;;;;;5014060;28;20242;-51
2022/03/06 06:25:55;;;;;;;18.90;12.70;;;-1.00;99.90;;;;;;5014224;28;20247;-50
2022/03/06 06:28:23;;;;;;;21.77;13.90;;;-1.00;99.90;;;;;;5014304;28;20234;-51
2022/03/06 06:30:51;;;;;;;18.47;12.67;;;-0.90;99.90;;;;;;5014290;28;20247;-50
2022/03/06 06:33:19;;;;;;;17.53;13.10;;;-0.90;99.90;;;;;;5013635;28;20277;-50
2022/03/06 06:35:49;;;;;;;23.43;13.50;;;-0.80;99.90;;;;;;5013513;28;20238;-51
2022/03/06 06:38:17;;;;;;;17.03;12.70;;;-0.80;99.90;;;;;;5013659;28;20257;-51
2022/03/06 06:40:45;;;;;;;17.23;13.47;;;-0.70;99.90;;;;;;5008642;28;20199;-50
2022/03/06 06:43:13;;;;;;;18.77;12.83;;;-0.60;99.90;;;;;;5012476;28;20206;-51
2022/03/06 06:45:42;;;;;;;21.73;13.57;;;-0.60;99.90;;;;;;5013477;28;20203;-51
2022/03/06 06:48:10;;;;;;;17.97;13.73;;;-0.50;99.90;;;;;;5012967;28;20688;-51
2022/03/06 06:50:38;;;;;;;18.17;13.17;;;-0.40;99.90;;;;;;5009075;28;20269;-50
2022/03/06 06:53:08;;;;;;;18.57;13.43;;;-0.40;99.90;;;;;;4994762;28;20995;-51
2022/03/06 06:55:36;;;;;;;17.70;12.93;;;-0.30;99.90;;;;;;4998074;28;20282;-52
2022/03/06 06:58:05;;;;;;;18.93;13.23;;;-0.30;99.90;;;;;;4995552;28;20205;-52
2022/03/06 07:00:34;;;;;;;17.93;13.80;;;-0.20;99.90;;;;;;4994332;28;20647;-51
2022/03/06 07:03:03;;;;;;;21.87;16.13;;;-0.10;99.90;;;;;;5012087;28;20257;-52
2022/03/06 07:05:31;;;;;;;19.97;14.27;;;0.00;99.90;;;;;;5010189;28;20239;-52
2022/03/06 07:07:59;;;;;;;21.63;15.27;;;0.10;99.90;;;;;;5013510;28;20587;-52
2022/03/06 07:10:28;;;;;;;19.00;13.77;;;0.10;99.90;;;;;;5011661;28;20279;-52
2022/03/06 07:12:58;;;;;;;20.60;14.40;;;0.20;99.90;;;;;;5008704;28;20574;-51
2022/03/06 07:15:28;;;;;;;19.53;13.43;;;0.30;99.90;;;;;;5013159;28;20247;-52
2022/03/06 07:17:58;;;;;;;17.33;12.93;;;0.40;99.90;;;;;;5009578;28;20665;-52
2022/03/06 07:20:27;;;;;;;17.80;12.53;;;0.50;99.90;;;;;;5019514;28;20625;-52
2022/03/06 07:22:55;;;;;;;17.00;12.23;;;0.50;99.90;;;;;;5012782;28;20199;-52
2022/03/06 07:25:23;;;;;;;14.97;12.17;;;0.60;99.90;;;;;;5012647;28;20705;-52
2022/03/06 07:27:53;;;;;;;15.80;12.30;;;0.70;99.90;;;;;;5011318;28;20235;-52
2022/03/06 07:30:22;;;;;;;18.93;13.90;;;0.80;99.90;;;;;;5011320;28;20243;-51
2022/03/06 07:32:52;;;;;;;17.20;11.90;;;0.90;99.90;;;;;;5008678;28;20279;-52
2022/03/06 07:35:22;;;;;;;18.87;13.17;;;1.00;99.90;;;;;;5012644;28;20262;-52
2022/03/06 07:37:50;;;;;;;17.03;11.77;;;1.10;99.90;;;;;;5003634;28;20228;-52
2022/03/06 07:40:20;;;;;;;15.30;11.90;;;1.10;99.90;;;;;;5009007;28;20216;-52
2022/03/06 07:42:49;;;;;;;16.33;12.57;;;1.20;99.90;;;;;;5012520;28;20234;-52
2022/03/06 07:45:19;;;;;;;13.60;11.73;;;1.30;99.90;;;;;;5017839;28;20225;-52
2022/03/06 07:47:47;;;;;;;18.17;12.10;;;1.40;99.90;;;;;;5012764;28;20204;-53
2022/03/06 07:50:16;;;;;;;15.07;11.47;;;1.40;99.90;;;;;;5012973;28;20208;-52
2022/03/06 07:52:44;;;;;;;15.93;11.80;;;1.50;99.90;;;;;;5012851;28;20270;-52
2022/03/06 07:55:12;;;;;;;14.20;11.43;;;1.60;99.90;;;;;;5012861;28;20273;-52
2022/03/06 07:57:41;;;;;;;15.03;12.33;;;1.70;99.90;;;;;;5012239;28;20281;-52
2022/03/06 08:00:12;;;;;;;14.37;11.27;;;1.70;99.90;;;;;;5013126;28;20208;-52
2022/03/06 08:02:41;;;;;;;14.87;12.30;;;1.90;99.90;;;;;;5011882;28;20609;-52
2022/03/06 08:05:10;;;;;;;13.83;11.50;;;1.90;99.90;;;;;;5013282;28;20641;-52
2022/03/06 08:07:38;;;;;;;15.57;12.57;;;1.90;99.90;;;;;;5012451;28;20207;-52
2022/03/06 08:10:08;;;;;;;15.40;11.63;;;2.00;99.90;;;;;;5011958;28;20299;-51
2022/03/06 08:12:37;;;;;;;14.83;11.70;;;2.10;99.90;;;;;;5011613;28;20293;-52
2022/03/06 08:15:07;;;;;;;16.20;12.27;;;2.20;99.90;;;;;;5010396;28;20776;-52
2022/03/06 08:17:35;;;;;;;14.90;12.10;;;2.30;99.90;;;;;;4999981;28;20265;-52
2022/03/06 08:20:06;;;;;;;14.57;11.60;;;2.40;99.90;;;;;;5011567;28;20203;-52
2022/03/06 08:22:34;;;;;;;13.13;11.17;;;2.40;99.90;;;;;;5013947;28;20572;-54
2022/03/06 08:25:03;;;;;;;17.00;11.60;;;2.50;99.90;;;;;;5011329;28;20271;-52
2022/03/06 08:27:32;;;;;;;16.13;12.60;;;2.60;99.90;;;;;;5011046;28;20217;-52
2022/03/06 08:30:00;;;;;;;26.93;18.60;;;2.70;99.90;;;;;;5010910;28;20672;-52
2022/03/06 08:32:28;;;;;;;17.60;13.43;;;2.80;99.90;;;;;;5009680;28;20665;-52
2022/03/06 08:34:57;;;;;;;27.67;17.87;;;2.80;99.90;;;;;;5012042;28;21024;-52
2022/03/06 08:37:26;;;;;;;17.27;13.80;;;2.90;99.90;;;;;;5010201;28;20673;-51
2022/03/06 08:39:54;;;;;;;16.93;13.37;;;3.00;99.90;;;;;;5012457;28;20664;-52
2022/03/06 08:42:22;;;;;;;14.77;12.10;;;3.10;99.90;;;;;;5009015;28;20207;-52
2022/03/06 08:44:50;;;;;;;19.33;13.47;;;3.20;99.90;;;;;;5010382;28;20219;-52
2022/03/06 08:47:19;;;;;;;17.47;13.50;;;3.30;99.90;;;;;;5010872;28;20683;-51
2022/03/06 08:49:47;;;;;;;14.47;11.77;;;3.30;99.90;;;;;;5010839;28;20233;-51
2022/03/06 08:52:15;;;;;;;14.33;11.60;;;3.40;99.90;;;;;;4991598;28;20712;-52
2022/03/06 08:54:44;;;;;;;15.53;12.27;;;3.50;99.90;;;;;;4991629;28;20229;-51
2022/03/06 08:57:12;;;;;;;18.87;14.10;;;3.60;99.90;;;;;;5004945;28;20210;-51
2022/03/06 08:59:40;;;;;;;15.47;11.97;;;3.60;99.90;;;;;;5006511;28;20236;-51
2022/03/06 09:02:08;;;;;;;19.83;15.40;;;3.80;99.90;;;;;;5010693;28;20675;-51
2022/03/06 09:04:37;;;;;;;16.30;13.20;;;3.80;99.90;;;;;;5004970;28;20270;-52
2022/03/06 09:07:06;;;;;;;16.53;13.70;;;3.90;99.90;;;;;;5008568;28;20211;-51
2022/03/06 09:09:34;;;;;;;17.27;14.00;;;3.90;99.90;;;;;;5009748;28;20211;-52
2022/03/06 09:12:04;;;;;;;16.07;13.50;;;3.90;99.90;;;;;;5010222;28;21171;-52
2022/03/06 09:14:32;;;;;;;16.37;14.47;;;4.10;99.90;;;;;;5010481;28;20285;-52
2022/03/06 09:17:00;;;;;;;18.57;14.03;;;4.20;99.90;;;;;;5010844;28;20218;-51
2022/03/06 09:19:28;;;;;;;18.83;15.80;;;4.20;99.90;;;;;;5010588;28;20287;-51
2022/03/06 09:21:56;;;;;;;21.13;16.27;;;4.20;99.90;;;;;;5009466;28;20641;-52
2022/03/06 09:24:25;;;;;;;17.53;15.13;;;4.30;99.90;;;;;;5010416;28;20296;-52
2022/03/06 09:26:53;;;;;;;21.37;16.03;;;4.30;99.90;;;;;;5010511;28;20250;-52
2022/03/06 09:29:22;;;;;;;21.27;16.43;;;4.40;99.90;;;;;;5010553;28;20259;-52
2022/03/06 09:31:50;;;;;;;19.83;16.07;;;4.40;99.90;;;;;;5009305;28;20214;-51
2022/03/06 09:34:18;;;;;;;19.03;16.10;;;4.40;99.90;;;;;;5006405;28;20235;-51
2022/03/06 09:36:47;;;;;;;19.80;16.07;;;4.40;99.90;;;;;;5008001;28;20213;-52
2022/03/06 09:39:16;;;;;;;17.67;15.73;;;4.40;99.90;;;;;;5011513;28;20348;-51
2022/03/06 09:41:44;;;;;;;20.50;16.50;;;4.40;99.90;;;;;;5010323;28;20218;-51
2022/03/06 09:44:13;;;;;;;18.53;16.43;;;4.40;99.90;;;;;;5002335;28;20285;-51
2022/03/06 09:46:43;;;;;;;19.73;15.73;;;4.50;99.90;;;;;;5009858;28;20243;-52
2022/03/06 09:49:11;;;;;;;19.63;17.50;;;4.70;99.20;;;;;;5010150;28;20772;-52
2022/03/06 09:51:42;;;;;;;19.03;16.40;;;4.70;98.90;;;;;;5010148;28;20200;-52
2022/03/06 09:54:12;;;;;;;19.07;16.63;;;4.70;99.00;;;;;;5009488;28;20963;-52
2022/03/06 09:56:40;;;;;;;19.50;16.80;;;4.70;99.50;;;;;;5008923;28;20270;-51
2022/03/06 09:59:09;;;;;;;17.20;15.40;;;4.80;99.80;;;;;;5010057;28;20786;-52
2022/03/06 10:01:37;;;;;;;17.33;15.47;;;4.90;98.80;;;;;;5010588;28;20214;-52
2022/03/06 10:04:24;;;;;;;16.37;14.63;;;4.80;97.30;;;;;;4998013;28;20231;-51
2022/03/06 10:07:04;;;;;;;17.50;15.57;;;4.90;98.70;;;;;;5008286;28;20208;-51
2022/03/06 10:09:33;;;;;;;17.10;14.43;;;4.90;97.80;;;;;;5009103;28;20218;-52
2022/03/06 10:12:19;;;;;;;15.43;13.70;;;5.00;98.00;;;;;;5009691;28;20225;-52
2022/03/06 10:14:48;;;;;;;16.97;14.53;;;5.10;98.10;;;;;;5007026;28;20272;-52
2022/03/06 10:17:19;;;;;;;16.17;14.33;;;5.20;97.60;;;;;;5009720;28;20213;-51
2022/03/06 10:19:54;;;;;;;15.80;13.57;;;5.10;96.10;;;;;;5009768;28;20209;-52
2022/03/06 10:22:25;;;;;;;15.00;12.60;;;5.00;96.70;;;;;;5007581;28;20282;-52
2022/03/06 10:24:55;;;;;;;14.80;13.20;;;5.10;96.10;;;;;;5008351;28;20238;-52
2022/03/06 10:27:43;;;;;;;17.43;12.53;;;5.10;95.50;;;;;;5005675;28;20383;-51
2022/03/06 10:30:28;;;;;;;15.20;13.60;;;5.10;95.20;;;;;;5008528;28;20215;-52
2022/03/06 10:32:58;;;;;;;16.07;13.43;;;5.00;95.30;;;;;;5006702;28;20214;-52
2022/03/06 10:35:32;;;;;;;15.23;13.63;;;5.10;95.60;;;;;;5008963;28;20706;-52
2022/03/06 10:38:01;;;;;;;14.60;12.93;;;5.10;95.20;;;;;;5009832;28;20263;-52
2022/03/06 10:40:33;;;;;;;15.90;13.43;;;5.20;95.60;;;;;;5006628;28;20225;-52
2022/03/06 10:43:02;;;;;;;14.07;12.50;;;5.30;95.10;;;;;;5009062;28;20268;-52
2022/03/06 10:45:30;;;;;;;12.20;10.90;;;5.20;94.50;;;;;;5009365;28;20295;-52
2022/03/06 10:47:58;;;;;;;12.80;11.20;;;5.20;94.40;;;;;;5009380;28;20289;-52
2022/03/06 10:50:28;;;;;;;11.03;9.93;;;5.20;94.20;;;;;;5012846;28;20586;-51
2022/03/06 10:52:58;;;;;;;12.67;9.80;;;5.20;94.10;;;;;;5011925;28;20222;-51
2022/03/06 10:55:34;;;;;;;11.27;10.07;;;5.30;93.50;;;;;;5013681;28;20254;-52
2022/03/06 10:58:04;;;;;;;13.03;10.53;;;5.30;93.70;;;;;;5010380;28;20280;-52
2022/03/06 11:00:33;;;;;;;11.57;10.33;;;5.40;94.10;;;;;;5013458;28;20219;-52
2022/03/06 11:03:04;;;;;;;11.73;10.07;;;5.70;93.60;;;;;;5012973;28;20215;-52
2022/03/06 11:05:35;;;;;;;12.70;10.60;;;5.70;93.30;;;;;;5012425;28;20226;-52
2022/03/06 11:08:04;;;;;;;11.77;10.53;;;5.70;92.90;;;;;;5012891;28;20257;-52
2022/03/06 11:10:33;;;;;;;13.47;10.80;;;5.80;93.00;;;;;;5011509;28;20291;-52
2022/03/06 11:13:02;;;;;;;12.17;10.13;;;5.80;93.30;;;;;;5011306;28;20206;-52
2022/03/06 11:15:30;;;;;;;12.00;10.70;;;6.00;92.90;;;;;;5011523;28;20222;-52
2022/03/06 11:18:01;;;;;;;13.40;10.97;;;6.00;92.80;;;;;;4997910;28;20655;-52
2022/03/06 11:20:31;;;;;;;12.33;10.27;;;6.20;92.90;;;;;;5012229;28;20685;-52
2022/03/06 11:23:08;;;;;;;12.20;10.80;;;6.30;93.10;;;;;;5011804;28;20211;-52
2022/03/06 11:25:41;;;;;;;12.30;10.97;;;6.40;93.00;;;;;;5010536;28;20629;-52
2022/03/06 11:28:23;;;;;;;12.20;10.90;;;6.30;92.20;;;;;;5011724;28;20206;-52
2022/03/06 11:30:51;;;;;;;12.27;10.97;;;6.30;92.30;;;;;;5010486;28;20261;-51
2022/03/06 11:33:20;;;;;;;14.43;12.00;;;6.20;93.00;;;;;;5011802;28;20643;-52
2022/03/06 11:35:50;;;;;;;15.77;12.70;;;6.20;93.00;;;;;;5004936;28;20220;-51
2022/03/06 11:38:20;;;;;;;13.97;11.93;;;6.20;92.80;;;;;;5003755;28;20238;-52
2022/03/06 11:40:50;;;;;;;13.67;11.90;;;6.20;93.20;;;;;;5011898;28;20207;-51
2022/03/06 11:43:33;;;;;;;14.57;12.57;;;6.00;92.70;;;;;;5003652;28;20207;-52
2022/03/06 11:46:11;;;;;;;13.30;11.37;;;6.10;93.40;;;;;;5011579;28;20196;-51
2022/03/06 11:49:10;;;;;;;13.37;11.97;;;6.20;93.10;;;;;;5012668;28;20266;-51
2022/03/06 11:51:44;;;;;;;14.83;13.10;;;6.10;92.90;;;;;;5012886;28;20211;-51
2022/03/06 11:54:17;;;;;;;16.17;13.67;;;6.00;93.30;;;;;;5004810;28;20245;-50
2022/03/06 11:57:01;;;;;;;14.63;12.90;;;6.00;93.60;;;;;;5011798;28;20234;-51
2022/03/06 11:59:47;;;;;;;16.17;13.10;;;5.90;93.20;;;;;;5011590;28;20276;-51
2022/03/06 12:02:18;;;;;;;16.60;13.77;;;5.70;93.10;;;;;;5019850;28;20277;-50
2022/03/06 12:04:56;;;;;;;16.40;13.33;;;5.60;93.20;;;;;;5011211;28;20227;-51
2022/03/06 12:07:26;;;;;;;14.73;12.63;;;5.70;93.30;;;;;;5012444;28;20262;-51
2022/03/06 12:09:56;;;;;;;15.13;13.20;;;5.70;93.00;;;;;;5011403;28;20744;-51
2022/03/06 12:12:25;;;;;;;15.90;13.47;;;5.80;92.80;;;;;;5010901;28;20207;-51
2022/03/06 12:14:56;;;;;;;16.03;13.37;;;5.70;92.60;;;;;;5011913;28;20262;-51
2022/03/06 12:17:36;;;;;;;15.10;13.00;;;5.70;92.50;;;;;;5011641;28;20595;-51
2022/03/06 12:20:42;;;;;;;14.63;13.03;;;5.70;92.20;;;;;;5011771;28;20207;-51
2022/03/06 12:23:22;;;;;;;16.40;13.90;;;5.70;92.40;;;;;;5011568;28;20723;-51
2022/03/06 12:25:54;;;;;;;14.27;12.30;;;5.70;92.60;;;;;;5009844;28;20272;-51
2022/03/06 12:28:43;;;;;;;15.37;12.70;;;5.70;92.40;;;;;;5010733;28;20676;-51
2022/03/06 12:31:35;;;;;;;13.73;12.23;;;5.80;92.10;;;;;;5007828;28;20209;-51
2022/03/06 12:34:39;;;;;;;13.17;11.73;;;5.80;92.10;;;;;;5011005;28;20227;-51
2022/03/06 12:37:08;;;;;;;15.40;12.30;;;5.80;92.40;;;;;;5011842;28;20230;-51
2022/03/06 12:39:37;;;;;;;14.47;12.60;;;5.70;92.30;;;;;;5009128;28;20217;-51
2022/03/06 12:42:07;;;;;;;13.67;12.17;;;5.70;92.10;;;;;;5010937;28;20211;-51
2022/03/06 12:44:44;;;;;;;12.53;11.17;;;5.70;92.20;;;;;;5010232;28;20225;-51